.
WxDataArchive / Data Records for 2015-07-12
2015-07-11 July 2015 2015-07-13

Data Records for Sunday, 12 July 2015

Time	Temp	Chill	HIndex	Humid	Dewpt	 Wind 	HiWind	WindDir	Rain 	Barom
-----	----	-----	------	-----	-----	------	------	-------	-----	-----
00:00	70.6	70.6	70.6	69	59.9	0	0	---	0.00	30.032 
00:05	70.6	70.6	70.6	69	59.9	0	0	---	0.00	30.032 
00:10	70.4	70.4	70.4	69	59.7	0	0	---	0.00	30.032 
00:15	70.3	70.3	70.3	69	59.6	0	0	---	0.00	30.028 
00:20	70.3	70.3	70.3	70	60.0	0	0	---	0.00	30.028 
00:25	70.3	70.3	70.3	71	60.4	0	0	---	0.00	30.028 
00:30	70.1	70.1	70.1	71	60.2	0	0	---	0.00	30.028 
00:35	70.1	70.1	70.1	71	60.2	0	0	---	0.00	30.028 
00:40	69.9	69.9	69.9	72	60.4	0	0	---	0.00	30.028 
00:45	69.8	69.8	69.8	72	60.4	0	0	---	0.00	30.027 
00:50	69.6	69.6	69.6	74	60.9	0	0	---	0.00	30.027 
00:55	69.6	69.6	69.6	74	60.9	0	0	---	0.00	30.027 
01:00	69.4	69.4	69.4	74	60.7	0	0	---	0.00	30.025 
01:05	69.4	69.4	69.4	75	61.1	0	0	---	0.00	30.025 
01:10	69.4	69.4	69.4	77	61.9	0	0	---	0.00	30.025 
01:15	69.3	69.3	69.3	77	61.8	0	0	---	0.00	30.025 
01:20	69.3	69.3	69.3	77	61.8	0	0	---	0.00	30.025 
01:25	69.1	69.1	69.1	77	61.6	0	0	---	0.00	30.025 
01:30	69.1	69.1	69.1	77	61.6	0	0	---	0.00	30.022 
01:35	69.1	69.1	69.1	78	61.9	0	0	---	0.00	30.022 
01:40	69.1	69.1	69.1	77	61.6	0	0	---	0.00	30.022 
01:45	68.9	68.9	68.9	77	61.4	0	0	---	0.00	30.017 
01:50	69.1	69.1	69.1	77	61.6	0	0	---	0.00	30.017 
01:55	69.1	69.1	69.1	77	61.6	0	0	---	0.00	30.017 
02:00	68.9	68.9	68.9	77	61.4	0	0	---	0.00	30.019 
02:05	68.9	68.9	68.9	77	61.4	0	0	---	0.00	30.019 
02:10	69.1	69.1	69.1	78	61.9	0	0	---	0.00	30.019 
02:15	68.9	68.9	68.9	77	61.4	0	0	---	0.00	30.018 
02:20	68.9	68.9	68.9	77	61.4	0	0	---	0.00	30.018 
02:25	68.9	68.9	68.9	77	61.4	0	1	22	0.00	30.018 
02:30	68.9	68.9	68.9	78	61.7	0	0	---	0.00	30.012 
02:35	68.9	68.9	68.9	79	62.1	0	0	---	0.00	30.012 
02:40	68.9	68.9	68.9	80	62.5	0	0	---	0.00	30.012 
02:45	68.8	68.8	68.8	81	62.7	0	0	---	0.00	30.000 
02:50	68.6	68.6	68.6	81	62.5	0	0	---	0.00	30.000 
02:55	68.4	68.4	68.4	82	62.7	0	0	---	0.00	30.000 
03:00	68.3	68.3	68.3	82	62.6	0	0	---	0.00	29.996 
03:05	68.3	68.3	68.3	83	62.9	0	0	---	0.00	29.996 
03:10	68.3	68.3	68.3	83	62.9	0	0	---	0.00	29.996 
03:15	68.1	68.1	68.1	83	62.7	0	0	---	0.00	29.990 
03:20	68.1	68.1	68.1	84	63.1	0	0	---	0.00	29.990 
03:25	67.9	67.9	67.9	84	62.9	0	0	---	0.00	29.990 
03:30	67.8	67.8	67.8	85	63.1	0	0	---	0.01	29.989 
03:35	67.6	67.6	67.6	86	63.3	0	0	---	0.00	29.989 
03:40	67.4	67.4	67.4	86	63.1	0	0	---	0.00	29.989 
03:45	67.3	67.3	67.3	87	63.3	0	0	---	0.00	29.991 
03:50	67.3	67.3	67.3	87	63.3	0	0	---	0.00	29.991 
03:55	67.3	67.3	67.3	88	63.6	0	0	---	0.00	29.991 
04:00	67.1	67.1	67.1	88	63.4	0	0	---	0.00	29.991 
04:05	67.1	67.1	67.1	88	63.4	0	0	---	0.00	29.991 
04:10	67.1	67.1	67.1	88	63.4	0	0	---	0.00	29.991 
04:15	66.9	66.9	66.9	89	63.5	0	0	---	0.00	29.987 
04:20	66.9	66.9	66.9	89	63.5	0	0	---	0.00	29.987 
04:25	66.9	66.9	66.9	90	63.9	0	0	---	0.00	29.987 
04:30	66.9	66.9	66.9	90	63.9	0	0	---	0.00	29.979 
04:35	66.9	66.9	66.9	91	64.2	0	1	22	0.00	29.979 
04:40	66.9	66.9	66.9	91	64.2	0	0	---	0.00	29.979 
04:45	66.9	66.9	66.9	91	64.2	0	0	---	0.00	29.975 
04:50	66.9	66.9	66.9	91	64.2	0	1	22	0.00	29.975 
04:55	66.9	66.9	66.9	91	64.2	0	0	---	0.00	29.975 
05:00	66.9	66.9	66.9	91	64.2	0	2	22	0.00	29.969 
05:05	66.8	66.8	66.8	91	64.1	0	0	---	0.00	29.969 
05:10	66.8	66.8	66.8	91	64.1	0	0	---	0.00	29.969 
05:15	66.8	66.8	66.8	91	64.1	0	0	---	0.00	29.978 
05:20	66.8	66.8	66.8	91	64.1	0	0	---	0.00	29.978 
05:25	66.8	66.8	66.8	92	64.4	0	0	---	0.00	29.978 
05:30	66.8	66.8	66.8	92	64.4	0	0	---	0.00	29.974 
05:35	66.6	66.6	66.6	92	64.2	0	1	22	0.00	29.974 
05:40	66.4	66.4	66.4	91	63.7	0	1	22	0.00	29.974 
05:45	66.4	66.4	66.4	91	63.7	0	0	---	0.00	29.972 
05:50	66.4	66.4	66.4	91	63.7	0	0	---	0.00	29.972 
05:55	66.4	66.4	66.4	91	63.7	0	0	---	0.00	29.972 
06:00	66.4	66.4	66.4	92	64.0	0	2	22	0.00	29.974 
06:05	66.4	66.4	66.4	92	64.0	0	2	22	0.00	29.974 
06:10	66.6	66.6	66.6	92	64.2	0	2	22	0.00	29.974 
06:15	66.6	66.6	66.6	92	64.2	0	0	---	0.00	29.977 
06:20	66.6	66.6	66.6	92	64.2	0	0	---	0.00	29.977 
06:25	66.4	66.4	66.4	92	64.0	0	1	22	0.00	29.977 
06:30	66.6	66.6	66.6	92	64.2	0	2	22	0.00	29.984 
06:35	66.6	66.6	66.6	92	64.2	0	1	22	0.00	29.984 
06:40	66.4	66.4	66.4	92	64.0	0	2	45	0.01	29.984 
06:45	66.4	66.4	66.4	92	64.0	0	2	45	0.00	29.985 
06:50	66.4	66.4	66.4	92	64.0	0	2	45	0.00	29.985 
06:55	66.3	66.3	66.3	92	63.9	0	0	---	0.00	29.985 
07:00	66.3	66.3	66.3	93	64.2	0	1	45	0.00	29.986 
07:05	66.3	66.3	66.3	93	64.2	0	2	45	0.01	29.986 
07:10	66.3	66.3	66.3	93	64.2	0	1	45	0.01	29.986 
07:15	66.1	66.1	66.1	93	64.0	0	1	45	0.02	29.984 
07:20	66.1	66.1	66.1	93	64.0	0	1	45	0.01	29.984 
07:25	66.0	66.0	66.0	94	64.2	0	1	45	0.01	29.984 
07:30	66.0	66.0	66.0	94	64.2	0	2	202	0.01	29.982 
07:35	66.0	66.0	66.0	94	64.2	0	2	202	0.00	29.982 
07:40	66.0	66.0	66.0	94	64.2	0	3	202	0.00	29.982 
07:45	65.8	65.8	65.8	94	64.0	1	3	202	0.00	29.980 
07:50	65.8	65.8	65.8	94	64.0	0	3	158	0.01	29.980 
07:55	65.8	65.8	65.8	95	64.3	1	3	158	0.00	29.980 
08:00	65.8	65.8	65.8	95	64.3	1	3	158	0.00	29.978 
08:05	65.8	65.8	65.8	95	64.3	1	4	135	0.00	29.978 
08:10	66.0	66.0	66.0	95	64.5	1	2	135	0.00	29.978 
08:15	66.0	66.0	66.0	95	64.5	0	2	135	0.00	29.979 
08:20	66.0	66.0	66.0	95	64.5	1	3	135	0.00	29.979 
08:25	66.1	66.1	66.1	95	64.6	1	3	135	0.00	29.979 
08:30	66.1	66.1	66.1	95	64.6	1	3	135	0.01	29.981 
08:35	66.1	66.1	66.1	95	64.6	1	3	135	0.00	29.981 
08:40	66.1	66.1	66.1	95	64.6	1	4	135	0.00	29.981 
08:45	66.0	66.0	66.0	95	64.5	1	4	135	0.00	29.979 
08:50	66.0	66.0	66.0	95	64.5	1	3	135	0.00	29.979 
08:55	66.0	66.0	66.0	95	64.5	1	4	135	0.00	29.979 
09:00	66.0	66.0	66.0	95	64.5	1	4	90	0.00	29.974 
09:05	65.8	65.8	65.8	95	64.3	1	3	45	0.01	29.974 
09:10	66.0	66.0	66.0	96	64.8	1	3	90	0.00	29.974 
09:15	65.8	65.8	65.8	96	64.6	1	3	90	0.00	29.975 
09:20	65.8	65.8	65.8	96	64.6	1	4	90	0.00	29.975 
09:25	65.8	65.8	65.8	96	64.6	1	4	90	0.00	29.975 
09:30	65.8	65.8	65.8	96	64.6	1	4	90	0.01	29.975 
09:35	65.8	65.8	65.8	96	64.6	2	6	112	0.00	29.975 
09:40	65.8	65.8	65.8	96	64.6	1	5	68	0.00	29.975 
09:45	65.6	65.6	65.6	96	64.4	1	4	68	0.00	29.973 
09:50	65.6	65.6	65.6	96	64.4	1	4	68	0.00	29.973 
09:55	65.6	65.6	65.6	96	64.4	1	4	68	0.01	29.973 
10:00	65.8	65.8	65.8	96	64.6	1	4	90	0.00	29.972 
10:05	66.0	66.0	66.0	96	64.8	0	3	90	0.00	29.972 
10:10	66.0	66.0	66.0	96	64.8	1	3	90	0.00	29.972 
10:15	66.1	66.1	66.1	96	64.9	1	5	90	0.00	29.970 
10:20	66.1	66.1	66.1	96	64.9	1	4	68	0.00	29.970 
10:25	66.1	66.1	66.1	96	64.9	1	3	68	0.00	29.970 
10:30	66.1	66.1	66.1	96	64.9	1	3	68	0.00	29.970 
10:35	66.3	66.3	66.3	96	65.1	1	4	68	0.00	29.970 
10:40	66.4	66.4	66.4	96	65.2	1	5	68	0.00	29.970 
10:45	66.4	66.4	66.4	96	65.2	2	5	135	0.00	29.969 
10:50	66.4	66.4	66.4	96	65.2	1	4	90	0.00	29.969 
10:55	66.4	66.4	66.4	96	65.2	2	5	90	0.00	29.969 
11:00	66.6	66.6	66.6	96	65.4	1	3	90	0.00	29.968 
11:05	66.6	66.6	66.6	96	65.4	1	4	90	0.00	29.968 
11:10	66.6	66.6	66.6	96	65.4	1	3	90	0.00	29.968 
11:15	66.6	66.6	66.6	96	65.4	1	5	90	0.00	29.963 
11:20	66.6	66.6	66.6	96	65.4	1	3	90	0.00	29.963 
11:25	66.6	66.6	66.6	96	65.4	1	4	90	0.00	29.963 
11:30	66.6	66.6	66.6	96	65.4	1	4	90	0.00	29.959 
11:35	66.6	66.6	66.6	96	65.4	2	5	90	0.00	29.959 
11:40	66.4	66.4	66.4	96	65.2	1	4	90	0.00	29.959 
11:45	66.4	66.4	66.4	96	65.2	1	4	90	0.00	29.959 
11:50	66.6	66.6	66.6	96	65.4	1	3	90	0.01	29.959 
11:55	66.6	66.6	66.6	96	65.4	0	3	90	0.00	29.959 
12:00	66.6	66.6	66.6	96	65.4	0	3	90	0.00	29.957 
12:05	66.8	66.8	66.8	96	65.6	1	4	90	0.00	29.957 
12:10	66.8	66.8	66.8	96	65.6	0	4	90	0.00	29.957 
12:15	66.8	66.8	66.8	96	65.6	1	3	90	0.00	29.957 
12:20	66.8	66.8	66.8	96	65.6	0	4	90	0.00	29.957 
12:25	66.8	66.8	66.8	96	65.6	1	6	90	0.00	29.957 
12:30	66.8	66.8	66.8	96	65.6	2	6	135	0.00	29.957 
12:35	66.8	66.8	66.8	96	65.6	1	5	68	0.00	29.957 
12:40	66.8	66.8	66.8	96	65.6	1	4	90	0.00	29.957 
12:45	67.1	67.1	67.1	96	65.9	1	3	90	0.00	29.955 
12:50	66.9	66.9	66.9	96	65.7	2	4	68	0.00	29.955 
12:55	67.1	67.1	67.1	96	65.9	1	9	68	0.00	29.955 
13:00	67.1	67.1	67.1	96	65.9	2	6	112	0.00	29.951 
13:05	67.4	67.4	67.4	96	66.2	1	4	112	0.00	29.951 
13:10	67.4	67.4	67.4	96	66.2	1	5	112	0.00	29.951 
13:15	67.4	67.4	67.4	96	66.2	1	3	90	0.00	29.955 
13:20	67.3	67.3	67.3	96	66.1	2	4	90	0.00	29.955 
13:25	67.3	67.3	67.3	96	66.1	2	7	68	0.00	29.955 
13:30	67.3	67.3	67.3	96	66.1	2	4	90	0.00	29.954 
13:35	67.6	67.6	67.6	96	66.4	1	2	90	0.00	29.954 
13:40	67.9	67.9	67.9	96	66.7	1	2	90	0.00	29.954 
13:45	68.1	68.1	68.1	96	66.9	0	3	90	0.00	29.955 
13:50	67.9	67.9	67.9	96	66.7	1	4	68	0.00	29.955 
13:55	67.8	67.8	67.8	96	66.6	1	3	68	0.00	29.955 
14:00	67.8	67.8	67.8	96	66.6	1	4	68	0.00	29.957 
14:05	67.8	67.8	67.8	96	66.6	1	4	68	0.00	29.957 
14:10	67.6	67.6	67.6	95	66.1	1	3	68	0.00	29.957 
14:15	67.8	67.8	67.8	95	66.3	0	2	68	0.00	29.955 
14:20	67.9	67.9	67.9	95	66.4	1	4	90	0.00	29.955 
14:25	67.8	67.8	67.8	95	66.3	1	7	90	0.00	29.955 
14:30	67.8	67.8	67.8	95	66.3	2	5	68	0.00	29.950 
14:35	67.9	67.9	67.9	95	66.4	1	4	68	0.00	29.950 
14:40	67.9	67.9	67.9	95	66.4	1	2	68	0.00	29.950 
14:45	68.1	68.1	68.1	95	66.6	0	2	68	0.00	29.951 
14:50	68.4	68.4	68.4	95	66.9	1	4	68	0.00	29.951 
14:55	68.6	68.6	68.6	94	66.8	1	3	68	0.00	29.951 
15:00	68.6	68.6	68.6	94	66.8	2	5	68	0.00	29.944 
15:05	68.8	68.8	68.8	93	66.7	1	4	68	0.00	29.944 
15:10	68.8	68.8	68.8	93	66.7	1	4	68	0.00	29.944 
15:15	68.6	68.6	68.6	93	66.5	2	4	68	0.00	29.943 
15:20	68.8	68.8	68.8	93	66.7	1	3	68	0.00	29.943 
15:25	68.9	68.9	68.9	92	66.5	1	3	68	0.00	29.943 
15:30	68.9	68.9	68.9	92	66.5	1	5	68	0.00	29.941 
15:35	69.1	69.1	69.1	92	66.7	0	2	68	0.00	29.941 
15:40	69.3	69.3	69.3	92	66.9	0	2	90	0.00	29.941 
15:45	69.3	69.3	69.3	92	66.9	0	4	90	0.00	29.942 
15:50	69.4	69.4	69.4	92	67.0	0	1	90	0.00	29.942 
15:55	69.4	69.4	69.4	91	66.7	0	2	90	0.00	29.942 
16:00	69.6	69.6	69.6	91	66.8	0	1	90	0.00	29.941 
16:05	69.6	69.6	69.6	91	66.8	1	4	90	0.00	29.941 
16:10	69.8	69.8	69.8	91	67.0	0	1	90	0.00	29.941 
16:15	69.8	69.8	69.8	90	66.7	1	3	90	0.00	29.940 
16:20	69.8	69.8	69.8	89	66.4	1	3	90	0.00	29.940 
16:25	69.6	69.6	69.6	89	66.2	1	5	90	0.00	29.940 
16:30	69.6	69.6	69.6	89	66.2	1	4	90	0.00	29.940 
16:35	69.6	69.6	69.6	89	66.2	1	3	90	0.00	29.940 
16:40	69.4	69.4	69.4	89	66.0	0	3	90	0.00	29.940 
16:45	69.6	69.6	69.6	89	66.2	1	3	90	0.00	29.931 
16:50	69.9	69.9	69.9	90	66.8	0	2	90	0.00	29.931 
16:55	70.3	70.3	70.3	89	66.9	1	3	90	0.00	29.931 
17:00	70.6	70.6	70.6	88	66.9	1	3	90	0.00	29.929 
17:05	70.4	70.4	70.4	87	66.3	2	4	90	0.00	29.929 
17:10	70.4	70.4	70.4	88	66.7	1	3	90	0.00	29.929 
17:15	70.6	70.6	70.6	88	66.9	1	3	90	0.00	29.928 
17:20	70.9	70.9	70.9	87	66.8	1	4	90	0.00	29.928 
17:25	71.1	71.1	71.1	86	66.7	1	3	90	0.00	29.928 
17:30	71.1	71.1	71.1	84	66.0	1	4	90	0.00	29.928 
17:35	71.3	71.3	71.3	84	66.2	1	3	90	0.00	29.928 
17:40	71.8	71.8	71.8	84	66.7	0	2	90	0.00	29.928 
17:45	72.3	72.3	72.3	84	67.2	1	3	90	0.00	29.923 
17:50	72.1	72.1	72.1	83	66.6	1	4	90	0.00	29.923 
17:55	72.1	72.1	72.1	83	66.6	1	3	90	0.00	29.923 
18:00	72.0	72.0	72.0	83	66.5	2	5	90	0.00	29.917 
18:05	72.0	72.0	72.0	83	66.5	1	3	90	0.00	29.917 
18:10	71.8	71.8	71.8	83	66.3	1	5	90	0.00	29.917 
18:15	72.0	72.0	72.0	83	66.5	2	5	90	0.00	29.918 
18:20	71.8	71.8	71.8	82	66.0	3	7	90	0.00	29.918 
18:25	72.0	72.0	72.0	83	66.5	1	3	90	0.00	29.918 
18:30	72.0	72.0	72.0	84	66.9	0	2	90	0.00	29.913 
18:35	72.0	72.0	72.0	83	66.5	1	4	90	0.00	29.913 
18:40	72.3	72.3	72.3	83	66.8	1	5	90	0.00	29.913 
18:45	72.3	72.3	72.3	81	66.1	2	6	90	0.00	29.911 
18:50	72.0	72.0	72.0	81	65.8	2	5	90	0.00	29.911 
18:55	71.6	71.6	71.6	82	65.8	1	3	90	0.00	29.911 
19:00	71.6	71.6	71.6	82	65.8	1	4	90	0.00	29.911 
19:05	71.6	71.6	71.6	81	65.4	2	5	90	0.00	29.911 
19:10	71.8	71.8	71.8	81	65.6	1	3	90	0.00	29.911 
19:15	72.0	72.0	72.0	81	65.8	1	4	90	0.00	29.916 
19:20	72.1	72.1	72.1	81	65.9	1	4	90	0.00	29.916 
19:25	72.1	72.1	72.1	81	65.9	1	4	90	0.00	29.916 
19:30	72.0	72.0	72.0	81	65.8	2	4	90	0.00	29.914 
19:35	72.0	72.0	72.0	82	66.2	1	2	68	0.00	29.914 
19:40	71.8	71.8	71.8	81	65.6	1	4	68	0.00	29.914 
19:45	71.6	71.6	71.6	82	65.8	0	2	68	0.00	29.913 
19:50	71.5	71.5	71.5	82	65.7	0	2	135	0.00	29.913 
19:55	71.5	71.5	71.5	82	65.7	1	3	90	0.00	29.913 
20:00	71.5	71.5	71.5	82	65.7	0	2	90	0.00	29.912 
20:05	71.5	71.5	71.5	82	65.7	0	2	90	0.00	29.912 
20:10	71.5	71.5	71.5	82	65.7	0	2	90	0.00	29.912 
20:15	71.3	71.3	71.3	83	65.9	0	1	90	0.00	29.920 
20:20	71.3	71.3	71.3	83	65.9	0	2	90	0.00	29.920 
20:25	71.1	71.1	71.1	83	65.7	0	1	90	0.00	29.920 
20:30	70.9	70.9	70.9	83	65.5	0	0	---	0.00	29.921 
20:35	70.8	70.8	70.8	84	65.7	0	1	90	0.00	29.921 
20:40	70.8	70.8	70.8	84	65.7	0	1	90	0.00	29.921 
20:45	70.6	70.6	70.6	85	65.9	0	1	90	0.00	29.918 
20:50	70.4	70.4	70.4	85	65.7	0	0	---	0.00	29.918 
20:55	70.1	70.1	70.1	86	65.7	0	1	90	0.00	29.918 
21:00	69.9	69.9	69.9	86	65.5	0	2	90	0.00	29.910 
21:05	69.8	69.8	69.8	87	65.7	0	1	90	0.00	29.910 
21:10	69.6	69.6	69.6	87	65.6	0	1	90	0.00	29.910 
21:15	69.4	69.4	69.4	87	65.4	0	0	---	0.00	29.914 
21:20	69.3	69.3	69.3	88	65.6	0	0	---	0.00	29.914 
21:25	68.9	68.9	68.9	88	65.2	0	0	---	0.00	29.914 
21:30	68.8	68.8	68.8	88	65.1	0	0	---	0.00	29.915 
21:35	68.6	68.6	68.6	89	65.2	0	0	---	0.00	29.915 
21:40	68.4	68.4	68.4	89	65.0	0	0	---	0.00	29.915 
21:45	68.1	68.1	68.1	89	64.7	0	0	---	0.00	29.918 
21:50	67.9	67.9	67.9	89	64.5	0	0	---	0.00	29.918 
21:55	67.8	67.8	67.8	90	64.8	0	0	---	0.00	29.918 
22:00	67.6	67.6	67.6	90	64.6	0	0	---	0.00	29.922 
22:05	67.4	67.4	67.4	90	64.4	0	0	---	0.00	29.922 
22:10	67.3	67.3	67.3	90	64.3	0	0	---	0.00	29.922 
22:15	67.1	67.1	67.1	91	64.4	0	0	---	0.00	29.927 
22:20	66.9	66.9	66.9	91	64.2	0	0	---	0.00	29.927 
22:25	66.6	66.6	66.6	91	63.9	0	0	---	0.00	29.927 
22:30	66.4	66.4	66.4	91	63.7	0	0	---	0.00	29.931 
22:35	66.3	66.3	66.3	91	63.6	0	0	---	0.00	29.931 
22:40	66.1	66.1	66.1	91	63.4	0	0	---	0.00	29.931 
22:45	66.0	66.0	66.0	91	63.3	0	0	---	0.00	29.940 
22:50	65.8	65.8	65.8	92	63.4	0	0	---	0.00	29.940 
22:55	65.6	65.6	65.6	92	63.2	0	0	---	0.00	29.940 
23:00	65.5	65.5	65.5	92	63.1	0	0	---	0.00	29.933 
23:05	65.3	65.3	65.3	92	62.9	0	0	---	0.00	29.933 
23:10	65.2	65.2	65.2	92	62.8	0	0	---	0.00	29.933 
23:15	64.8	64.8	64.8	92	62.4	0	0	---	0.00	29.929 
23:20	64.7	64.7	64.7	92	62.3	0	0	---	0.00	29.929 
23:25	64.5	64.5	64.5	93	62.4	0	0	---	0.00	29.929 
23:30	64.5	64.5	64.5	93	62.4	0	0	---	0.00	29.925 
23:35	64.3	64.3	64.3	93	62.2	0	0	---	0.00	29.925 
23:40	64.3	64.3	64.3	93	62.2	0	0	---	0.00	29.925 
23:45	64.2	64.2	64.2	93	62.1	0	0	---	0.00	29.929 
23:50	64.0	64.0	64.0	93	61.9	0	0	---	0.00	29.929 
23:55	64.0	64.0	64.0	93	61.9	0	0	---	0.00	29.929 

CoCoRaHS
IN-AL-39
A2 Web Hosting
Creative Commons License
GoDaddy
search engine by freefind advanced

loaded 2018-11-16 00:56:49 • last modified 2010-11-18 10:43:29
Privacy PolicyDisclaimer
• wx.awcolley.com is powered by PmWiki v.2002016 •
• all content (unless otherwise noted) © 2018 A W Colley